Time;durP1;ratioP1;P1;durP2;ratioP2;P2;SDS_P1;SDS_P2;PMS_P1;PMS_P2;Temp;Humidity;BMP_temperature;BMP_pressure;BME280_temperature;BME280_humidity;BME280_pressure;Samples;Min_cycle;Max_cycle;Signal;HPM_P1;HPM_P2
2023/10/20 00:02:22;;;;;;;10.05;3.15;;;;;;;18.35;46.49;99769.21;1725213;83;21351;-80
2023/10/20 00:05:28;;;;;;;19.27;4.17;;;;;;;18.27;46.76;99770.11;1724996;83;21300;-80
2023/10/20 00:08:35;;;;;;;8.33;3.17;;;;;;;18.04;47.24;99760.69;1724687;83;21654;-81
2023/10/20 00:11:40;;;;;;;6.95;3.15;;;;;;;18.29;46.95;99752.70;1725251;83;21296;-82
2023/10/20 00:14:45;;;;;;;5.83;2.95;;;;;;;18.57;46.55;99736.20;1726107;83;21304;-82
2023/10/20 00:17:51;;;;;;;9.45;3.62;;;;;;;18.25;47.05;99732.11;1724649;83;21320;-82
2023/10/20 00:20:57;;;;;;;7.45;3.37;;;;;;;18.13;47.51;99723.83;1725905;83;21860;-81
2023/10/20 00:24:03;;;;;;;7.28;3.05;;;;;;;18.26;47.36;99715.83;1725977;83;21865;-81
2023/10/20 00:27:10;;;;;;;7.33;3.40;;;;;;;18.28;47.56;99703.96;1725289;83;21288;-81
2023/10/20 00:30:17;;;;;;;4.92;2.92;;;;;;;18.19;47.94;99699.33;1726146;83;21302;-81
2023/10/20 00:33:23;;;;;;;8.00;3.47;;;;;;;18.10;48.28;99707.69;1724878;83;21328;-81
2023/10/20 00:36:31;;;;;;;8.13;3.10;;;;;;;18.20;48.25;99707.09;1725788;83;21949;-82
2023/10/20 00:39:36;;;;;;;6.42;3.37;;;;;;;18.28;48.16;99715.03;1726105;83;21300;-81
2023/10/20 00:42:43;;;;;;;7.47;2.85;;;;;;;18.25;48.19;99720.50;1724810;83;21324;-81
2023/10/20 00:45:51;;;;;;;7.65;3.05;;;;;;;18.40;47.89;99717.27;1724879;83;21295;-81
2023/10/20 00:48:57;;;;;;;7.45;2.95;;;;;;;18.45;47.81;99714.61;1725854;83;21281;-81
2023/10/20 00:52:04;;;;;;;12.07;3.05;;;;;;;18.54;47.63;99714.55;1724723;83;21304;-80
2023/10/20 00:55:13;;;;;;;7.65;3.30;;;;;;;18.75;47.21;99706.70;1725590;83;21193;-81
2023/10/20 00:58:18;;;;;;;9.35;3.17;;;;;;;18.70;47.22;99697.74;1724864;83;21368;-81
2023/10/20 01:01:18;;;;;;;6.20;2.58;;;;;;;18.66;47.20;99699.28;1726156;83;21300;-82
2023/10/20 01:04:13;;;;;;;4.83;2.37;;;;;;;18.68;46.70;99691.59;1726062;83;21316;-82
2023/10/20 01:06:59;;;;;;;11.48;2.83;;;;;;;18.93;46.06;99697.39;1724654;83;21319;-82
2023/10/20 01:09:52;;;;;;;7.87;2.75;;;;;;;18.92;45.78;99704.86;1726110;83;21308;-80
2023/10/20 01:12:38;;;;;;;8.73;2.92;;;;;;;18.98;45.40;99694.72;1724920;83;21375;-80
2023/10/20 01:15:30;;;;;;;8.25;2.60;;;;;;;19.08;45.15;99702.68;1725587;83;21297;-81
2023/10/20 01:18:17;;;;;;;6.25;2.52;;;;;;;19.22;44.64;99688.53;1726049;83;21341;-81
2023/10/20 01:21:09;;;;;;;7.03;2.95;;;;;;;18.90;44.74;99689.84;1725053;83;21869;-81
2023/10/20 01:24:14;;;;;;;8.03;3.05;;;;;;;19.01;44.18;99682.60;1726050;83;21893;-81
2023/10/20 01:27:20;;;;;;;5.83;2.98;;;;;;;19.17;43.51;99689.27;1725729;83;21272;-82
2023/10/20 01:30:26;;;;;;;7.80;3.30;;;;;;;19.04;43.73;99697.88;1724749;83;21280;-81
2023/10/20 01:33:32;;;;;;;6.28;2.85;;;;;;;19.45;42.90;99695.35;1726160;83;21273;-81
2023/10/20 01:36:39;;;;;;;6.95;2.90;;;;;;;19.34;43.07;99698.48;1725187;83;21301;-81
2023/10/20 01:39:47;;;;;;;4.83;2.92;;;;;;;19.52;42.41;99691.86;1726428;83;21265;-81
2023/10/20 01:42:54;;;;;;;5.20;3.30;;;;;;;19.64;42.04;99689.90;1726358;83;21288;-82
2023/10/20 01:46:00;;;;;;;7.30;3.30;;;;;;;19.38;42.38;99687.72;1726340;83;21858;-81
2023/10/20 01:49:06;;;;;;;7.20;3.58;;;;;;;19.26;42.61;99682.80;1708925;83;21824;-81
2023/10/20 01:52:12;;;;;;;5.78;3.17;;;;;;;19.28;42.45;99675.05;1709101;84;21709;-81
2023/10/20 01:55:18;;;;;;;6.30;3.37;;;;;;;19.21;42.49;99689.63;1690794;85;21301;-82
2023/10/20 01:58:27;;;;;;;5.70;3.27;;;;;;;19.13;42.54;99695.85;1710351;82;21362;-82
2023/10/20 02:01:33;;;;;;;5.87;3.90;;;;;;;19.22;42.33;99688.53;1722809;83;21335;-82
2023/10/20 02:04:39;;;;;;;7.35;3.50;;;;;;;19.15;42.24;99695.63;1797181;80;21282;-80
2023/10/20 02:07:46;;;;;;;6.75;3.20;;;;;;;19.17;42.00;99694.81;1725421;83;21325;-80
2023/10/20 02:10:51;;;;;;;9.20;3.22;;;;;;;19.14;41.86;99695.30;1797205;80;21834;-81
2023/10/20 02:13:57;;;;;;;4.80;3.08;;;;;;;18.92;42.12;99697.94;1709185;83;21321;-81
2023/10/20 02:17:02;;;;;;;7.42;3.20;;;;;;;18.85;42.18;99697.22;1771268;80;21275;-81
2023/10/20 02:20:08;;;;;;;5.92;3.08;;;;;;;18.95;41.97;99700.19;1770691;81;21995;-80
2023/10/20 02:23:16;;;;;;;10.18;3.67;;;;;;;18.90;41.91;99704.25;1770808;81;21901;-81
2023/10/20 02:26:23;;;;;;;9.03;3.65;;;;;;;18.69;42.08;99702.98;1770277;81;21366;-81
2023/10/20 02:29:30;;;;;;;5.62;3.30;;;;;;;18.68;41.99;99694.36;1770736;81;21339;-81
2023/10/20 02:32:35;;;;;;;9.13;3.58;;;;;;;18.72;42.08;99708.56;1769587;81;21884;-81
2023/10/20 02:35:41;;;;;;;5.78;3.47;;;;;;;18.69;42.14;99701.60;1770670;81;21276;-82
2023/10/20 02:38:47;;;;;;;5.67;3.55;;;;;;;18.71;42.13;99708.27;1753556;81;21336;-82
2023/10/20 02:41:52;;;;;;;8.73;4.08;;;;;;;18.55;42.48;99705.15;1698455;84;21334;-82
2023/10/20 02:44:58;;;;;;;10.15;4.10;;;;;;;18.94;42.00;99708.22;1763789;80;21316;-81
2023/10/20 02:48:03;;;;;;;7.53;3.85;;;;;;;18.99;41.95;99704.16;1769536;81;21857;-81
2023/10/20 02:51:20;;;;;;;11.03;4.78;;;;;;;18.97;42.10;99696.65;1769374;81;21312;-81
2023/10/20 02:54:25;;;;;;;7.87;4.03;;;;;;;18.81;42.31;99696.86;1767399;79;21269;-80
2023/10/20 02:57:30;;;;;;;9.43;3.52;;;;;;;18.88;42.13;99685.11;1684551;85;21303;-80
2023/10/20 03:00:38;;;;;;;6.62;3.00;;;;;;;18.75;42.35;99682.61;1770486;79;21714;-80
2023/10/20 03:03:45;;;;;;;8.70;4.08;;;;;;;18.65;42.63;99682.37;1790892;80;21303;-81
2023/10/20 03:06:51;;;;;;;8.00;3.98;;;;;;;18.51;42.97;99666.56;1782037;80;21323;-81
2023/10/20 03:09:58;;;;;;;8.33;4.20;;;;;;;18.45;43.07;99656.47;1787473;79;21323;-81
2023/10/20 03:13:05;;;;;;;9.63;4.33;;;;;;;18.34;43.26;99651.23;1726311;83;21329;-81
2023/10/20 03:16:10;;;;;;;17.32;3.83;;;;;;;18.17;43.85;99650.85;1796863;80;21339;-80
2023/10/20 03:19:15;;;;;;;7.28;4.00;;;;;;;18.39;43.61;99649.11;1725187;83;21289;-81
2023/10/20 03:22:20;;;;;;;6.05;3.10;;;;;;;18.05;44.43;99637.00;1795934;80;21663;-82
2023/10/20 03:25:19;;;;;;;6.53;3.62;;;;;;;18.16;44.49;99627.87;1731644;81;21612;-81
2023/10/20 03:28:28;;;;;;;6.87;3.60;;;;;;;18.11;44.71;99624.45;1801006;79;21804;-81
2023/10/20 03:31:34;;;;;;;5.95;3.10;;;;;;;18.33;44.57;99622.41;1727531;82;21384;-81
2023/10/20 03:34:41;;;;;;;6.17;3.62;;;;;;;18.24;44.75;99624.70;1796833;80;21780;-82
2023/10/20 03:37:47;;;;;;;5.55;3.05;;;;;;;18.28;44.54;99614.84;1724849;83;21714;-81
2023/10/20 03:40:52;;;;;;;5.78;3.20;;;;;;;18.42;44.37;99604.88;1801603;79;21309;-82
2023/10/20 03:43:57;;;;;;;9.98;3.12;;;;;;;18.54;43.82;99587.16;1802052;79;21864;-82
2023/10/20 03:47:05;;;;;;;5.00;2.87;;;;;;;18.50;43.71;99584.58;1733788;82;21319;-82
2023/10/20 03:50:17;;;;;;;4.53;2.98;;;;;;;18.77;43.19;99577.95;1802137;79;21264;-82
2023/10/20 03:53:27;;;;;;;6.30;2.92;;;;;;;18.75;43.28;99594.51;1733568;82;21842;-82
2023/10/20 03:56:36;;;;;;;6.47;3.10;;;;;;;18.47;43.97;99586.44;1801641;79;21856;-81
2023/10/20 03:59:41;;;;;;;9.10;3.42;;;;;;;18.49;43.99;99591.21;1733110;82;21834;-81
2023/10/20 04:02:47;;;;;;;6.75;3.15;;;;;;;18.47;44.07;99593.36;1808051;79;21283;-81
2023/10/20 04:05:53;;;;;;;4.08;2.62;;;;;;;18.32;44.38;99597.20;1741810;82;21370;-81
2023/10/20 04:09:01;;;;;;;6.75;3.08;;;;;;;18.43;44.37;99592.17;1762769;81;21311;-81
2023/10/20 04:12:07;;;;;;;4.60;2.67;;;;;;;18.76;44.02;99598.41;1709579;84;21340;-81
2023/10/20 04:15:26;;;;;;;4.15;2.95;;;;;;;18.39;44.90;99597.89;1702818;83;21328;-81
2023/10/20 04:18:22;;;;;;;7.80;3.70;;;;;;;18.55;44.80;99592.15;1733866;82;21344;-82
2023/10/20 04:21:29;;;;;;;4.97;3.52;;;;;;;18.14;45.74;99592.66;1710202;84;21892;-82
2023/10/20 04:24:36;;;;;;;6.37;2.98;;;;;;;18.08;45.99;99593.09;1704201;83;21285;-81
2023/10/20 04:27:57;;;;;;;7.37;3.05;;;;;;;18.29;45.76;99586.61;1719673;83;21323;-80
2023/10/20 04:53:52;;;;;;;4.87;2.98;;;;;;;19.26;44.50;99615.70;1736483;82;21304;-81
2023/10/20 05:04:13;;;;;;;8.25;2.80;;;;;;;19.14;45.00;99628.78;1735955;82;21312;-82
2023/10/20 05:07:26;;;;;;;7.00;2.17;;;;;;;19.23;44.95;99636.98;1714414;82;21352;-80
2023/10/20 05:09:25;;;;;;;3.70;2.45;;;;;;;19.20;44.96;99631.12;1715469;82;21304;-81
2023/10/20 05:12:30;;;;;;;8.95;4.35;;;;;;;19.05;45.16;99629.72;1735826;82;21328;-81
2023/10/20 05:15:40;;;;;;;8.03;3.50;;;;;;;19.12;44.96;99631.81;1735212;82;21323;-82
2023/10/20 05:18:47;;;;;;;10.80;2.87;;;;;;;19.36;44.18;99634.45;1733379;82;21332;-81
2023/10/20 05:21:53;;;;;;;15.23;3.40;;;;;;;19.28;44.12;99636.23;1733095;82;21315;-81
2023/10/20 05:24:59;;;;;;;25.02;7.50;;;;;;;19.18;44.36;99638.83;1721177;82;21348;-81
2023/10/20 05:28:07;;;;;;;18.77;6.85;;;;;;;19.25;44.11;99633.98;1710641;82;21297;-81
2023/10/20 05:31:12;;;;;;;20.02;7.50;;;;;;;19.21;44.15;99623.09;1710542;81;21959;-81
2023/10/20 05:34:18;;;;;;;16.60;6.25;;;;;;;19.14;44.18;99621.30;1704804;82;21324;-81
2023/10/20 05:37:24;;;;;;;13.68;5.62;;;;;;;19.24;44.29;99608.16;1711623;82;21379;-81
2023/10/20 05:40:30;;;;;;;12.53;4.40;;;;;;;19.60;43.60;99619.37;1699175;82;21273;-82
2023/10/20 05:43:36;;;;;;;14.00;3.75;;;;;;;19.61;43.63;99605.78;1698808;82;22205;-81
2023/10/20 05:46:42;;;;;;;12.33;3.83;;;;;;;19.83;43.21;99610.03;1702603;82;21288;-81
2023/10/20 05:49:47;;;;;;;12.82;3.62;;;;;;;19.78;43.38;99609.11;1721853;82;21286;-82
2023/10/20 05:52:53;;;;;;;6.22;3.17;;;;;;;19.59;43.85;99603.79;1727261;81;21305;-82
2023/10/20 05:55:58;;;;;;;15.90;4.30;;;;;;;19.88;43.54;99591.23;1721043;82;22170;-83
2023/10/20 05:59:06;;;;;;;15.32;4.95;;;;;;;19.97;43.38;99589.70;1720178;81;21302;-83
2023/10/20 06:02:13;;;;;;;15.43;5.30;;;;;;;19.86;43.84;99586.48;1701926;83;21341;-82
2023/10/20 06:05:35;;;;;;;10.58;3.62;;;;;;;19.78;44.05;99579.42;1677391;85;21349;-82
2023/10/20 06:08:41;;;;;;;10.93;4.42;;;;;;;19.95;44.04;99579.93;1714964;81;21306;-82
2023/10/20 06:11:47;;;;;;;15.10;3.70;;;;;;;20.12;43.83;99577.97;1731025;80;21278;-81
2023/10/20 06:14:53;;;;;;;8.08;3.08;;;;;;;20.47;43.29;99585.97;1699073;84;21345;-82
2023/10/20 06:17:59;;;;;;;8.83;3.40;;;;;;;20.58;43.18;99578.05;1703580;82;22289;-82
2023/10/20 06:21:07;;;;;;;5.10;2.58;;;;;;;20.85;42.61;99566.13;1728900;82;21391;-82
2023/10/20 06:24:12;;;;;;;9.68;2.80;;;;;;;20.61;42.74;99577.53;1692408;83;21305;-82
2023/10/20 06:27:18;;;;;;;10.85;2.83;;;;;;;20.84;42.24;99564.42;1702118;82;21296;-83
2023/10/20 06:30:23;;;;;;;6.05;2.87;;;;;;;20.93;41.71;99553.13;1721730;82;21272;-81
2023/10/20 06:33:32;;;;;;;7.45;3.20;;;;;;;20.70;42.00;99555.66;1699921;82;21986;-82
2023/10/20 06:36:31;;;;;;;6.53;2.67;;;;;;;20.53;42.38;99537.70;1703587;83;21294;-83
2023/10/20 06:39:27;;;;;;;5.08;2.45;;;;;;;20.62;42.38;99545.87;1721971;82;21679;-82
2023/10/20 06:42:32;;;;;;;;;;;;;;;21.03;41.39;99542.13;1739580;82;21298;-82
2023/10/20 06:45:38;;;;;;;6.00;2.60;;;;;;;20.84;41.35;99533.33;1727604;81;20518;-81
2023/10/20 06:48:47;;;;;;;8.53;2.65;;;;;;;20.92;40.56;99534.22;1722361;82;21314;-81
2023/10/20 06:51:54;;;;;;;4.40;2.00;;;;;;;21.20;39.91;99530.86;1725030;82;21279;-82
2023/10/20 06:54:59;;;;;;;4.42;2.47;;;;;;;20.93;39.87;99516.98;1721329;82;21294;-80
2023/10/20 06:58:06;;;;;;;4.50;2.55;;;;;;;20.96;39.86;99522.03;1725467;82;22480;-81
2023/10/20 07:01:15;;;;;;;8.85;2.35;;;;;;;21.03;39.65;99515.72;1726985;82;21302;-81
2023/10/20 07:04:21;;;;;;;12.05;2.70;;;;;;;21.31;39.16;99513.17;1727943;81;22023;-82
2023/10/20 07:07:27;;;;;;;6.28;2.42;;;;;;;21.42;39.16;99504.38;1783048;79;21320;-81
2023/10/20 07:10:37;;;;;;;3.83;2.15;;;;;;;21.48;39.09;99503.30;1781057;79;21275;-81
2023/10/20 07:13:44;;;;;;;7.72;2.47;;;;;;;21.51;39.16;99506.95;1777025;79;21267;-81
2023/10/20 07:16:49;;;;;;;21.25;3.50;;;;;;;21.53;39.52;99497.77;1785198;79;21271;-81
2023/10/20 07:19:53;;;;;;;5.28;1.90;;;;;;;21.47;40.18;99493.84;1778924;78;21265;-81
2023/10/20 07:23:00;;;;;;;5.75;2.33;;;;;;;21.60;40.35;99482.25;1784876;78;21313;-82
2023/10/20 07:26:07;;;;;;;9.43;2.60;;;;;;;21.76;40.45;99492.91;1795688;79;21311;-82
2023/10/20 07:29:08;;;;;;;8.15;2.50;;;;;;;22.06;40.21;99498.63;1784234;79;21873;-81
2023/10/20 07:32:15;;;;;;;12.73;3.62;;;;;;;22.18;40.12;99496.48;1785669;79;21365;-83
2023/10/20 07:35:31;;;;;;;8.50;2.90;;;;;;;22.48;39.76;99479.59;1784211;79;21295;-82
2023/10/20 07:38:38;;;;;;;9.55;2.90;;;;;;;22.73;39.48;99478.83;1784107;79;21315;-83
2023/10/20 07:41:45;;;;;;;10.40;2.67;;;;;;;22.92;39.04;99486.12;1786939;79;21299;-82
2023/10/20 07:44:51;;;;;;;10.40;3.65;;;;;;;23.03;38.89;99481.39;1784135;79;22202;-82
2023/10/20 07:47:57;;;;;;;9.83;3.60;;;;;;;23.23;38.82;99473.00;1780786;79;21323;-83
2023/10/20 07:51:03;;;;;;;11.00;3.00;;;;;;;23.45;38.70;99464.34;1784644;79;21287;-83
2023/10/20 07:53:58;;;;;;;6.87;2.97;;;;;;;23.70;38.72;99460.13;1786071;79;21342;-83
2023/10/20 07:57:07;;;;;;;6.65;2.98;;;;;;;23.97;38.61;99461.16;1784999;79;21416;-81
2023/10/20 08:00:18;;;;;;;5.90;2.80;;;;;;;24.07;38.75;99458.88;1779323;79;21830;-83
2023/10/20 08:03:24;;;;;;;8.68;3.20;;;;;;;24.27;38.64;99472.48;1784726;79;21617;-83
2023/10/20 08:06:30;;;;;;;5.87;2.58;;;;;;;24.37;38.29;99479.44;1787831;78;21271;-83
2023/10/20 08:09:37;;;;;;;8.55;2.90;;;;;;;24.39;37.74;99473.85;1794308;79;21306;-83
2023/10/20 08:12:43;;;;;;;7.37;2.70;;;;;;;24.69;37.45;99478.41;1788993;79;21260;-83
2023/10/20 08:15:47;;;;;;;8.93;2.45;;;;;;;24.89;37.25;99469.61;1791091;79;21326;-82
2023/10/20 08:18:54;;;;;;;5.37;1.98;;;;;;;25.05;36.76;99473.14;1792392;79;21351;-82
2023/10/20 08:21:59;;;;;;;5.42;2.40;;;;;;;25.41;36.18;99454.11;1796700;79;21299;-81
2023/10/20 08:25:04;;;;;;;6.70;2.25;;;;;;;25.23;36.57;99452.87;1790382;79;21286;-81
2023/10/20 08:28:09;;;;;;;8.25;2.47;;;;;;;25.12;37.02;99446.52;1777443;79;21269;-81
2023/10/20 08:31:17;;;;;;;10.55;2.80;;;;;;;25.46;36.71;99446.49;1792107;79;21334;-81
2023/10/20 08:34:24;;;;;;;9.80;3.37;;;;;;;25.23;37.19;99444.48;1788720;79;21287;-81
2023/10/20 08:37:28;;;;;;;11.53;2.72;;;;;;;25.32;37.19;99434.32;1792720;78;21267;-82
2023/10/20 08:40:42;;;;;;;18.30;2.75;;;;;;;25.29;37.48;99441.06;1794401;79;21585;-82
2023/10/20 08:43:51;;;;;;;7.80;2.65;;;;;;;25.47;37.32;99424.36;1789996;79;21936;-81
2023/10/20 08:46:57;;;;;;;8.45;2.30;;;;;;;25.82;37.29;99420.08;1792286;79;21299;-81
2023/10/20 08:50:03;;;;;;;5.47;2.12;;;;;;;25.75;37.56;99427.42;1789238;79;21814;-81
2023/10/20 08:53:09;;;;;;;11.75;3.35;;;;;;;25.89;37.20;99420.56;1734132;81;21623;-82
2023/10/20 08:56:18;;;;;;;16.00;2.58;;;;;;;25.86;37.19;99422.55;1734659;81;21295;-81
2023/10/20 08:59:23;;;;;;;20.27;3.05;;;;;;;25.76;37.82;99417.08;1735730;82;21268;-82
2023/10/20 09:02:29;;;;;;;18.85;2.90;;;;;;;25.79;38.23;99410.33;1733087;82;21358;-82
2023/10/20 09:05:36;;;;;;;9.48;2.60;;;;;;;26.10;37.93;99424.76;1743369;81;21983;-83
2023/10/20 09:08:43;;;;;;;10.65;2.70;;;;;;;26.00;37.99;99419.30;1732304;82;21960;-83
2023/10/20 09:11:49;;;;;;;13.43;2.72;;;;;;;26.04;37.71;99413.36;1743298;81;21288;-82
2023/10/20 09:14:56;;;;;;;10.15;2.67;;;;;;;26.14;37.73;99413.79;1736100;81;21904;-83
2023/10/20 09:18:01;;;;;;;12.13;2.47;;;;;;;25.96;38.07;99408.41;1735676;81;21655;-82
2023/10/20 09:21:10;;;;;;;9.58;2.37;;;;;;;25.91;38.25;99402.88;1753387;81;21289;-81
2023/10/20 09:24:17;;;;;;;14.68;2.65;;;;;;;25.95;38.29;99403.95;1727492;81;21292;-82
2023/10/20 09:27:22;;;;;;;10.55;2.30;;;;;;;25.60;38.90;99410.80;1717756;82;21299;-82
2023/10/20 09:30:27;;;;;;;10.78;2.22;;;;;;;25.59;38.92;99408.53;1736657;80;21318;-83
2023/10/20 09:33:34;;;;;;;12.40;2.35;;;;;;;25.49;39.01;99401.66;1737519;82;21256;-82
2023/10/20 09:36:39;;;;;;;16.02;2.50;;;;;;;25.66;38.80;99403.44;1738563;81;21319;-83
2023/10/20 09:39:47;;;;;;;15.60;3.05;;;;;;;25.98;38.51;99383.75;1734572;81;21279;-83
2023/10/20 09:43:23;;;;;;;14.23;3.20;;;;;;;26.35;38.16;99374.55;1744756;81;21307;-83
2023/10/20 09:47:02;;;;;;;20.77;2.87;;;;;;;26.25;38.53;99367.66;1734952;81;21644;-83
2023/10/20 09:50:11;;;;;;;22.85;3.05;;;;;;;26.67;37.97;99363.95;1736269;81;21876;-83
2023/10/20 09:53:16;;;;;;;24.20;3.83;;;;;;;26.72;37.91;99363.03;1727810;82;21284;-83
2023/10/20 09:56:22;;;;;;;15.20;3.02;;;;;;;26.85;37.45;99371.24;1728385;82;21271;-82
2023/10/20 09:59:30;;;;;;;12.80;3.10;;;;;;;27.04;37.02;99373.42;1755749;81;22189;-82
2023/10/20 10:02:36;;;;;;;8.28;2.58;;;;;;;27.00;37.05;99358.34;1756697;81;22224;-83
2023/10/20 10:05:45;;;;;;;14.23;3.00;;;;;;;27.02;36.94;99360.28;1754742;81;21305;-82
2023/10/20 10:08:51;;;;;;;15.38;3.35;;;;;;;26.92;37.25;99361.30;1715328;81;21300;-82
2023/10/20 10:11:57;;;;;;;19.07;3.80;;;;;;;26.89;37.58;99361.91;1757913;81;21309;-83
2023/10/20 10:15:14;;;;;;;14.18;4.60;;;;;;;26.85;37.36;99359.45;1761044;81;21897;-83
2023/10/20 10:18:22;;;;;;;14.63;4.40;;;;;;;26.71;37.62;99360.80;1720870;82;21283;-82
2023/10/20 10:21:32;;;;;;;8.68;4.20;;;;;;;26.85;37.30;99351.61;1728695;81;21681;-84
2023/10/20 10:24:39;;;;;;;10.63;3.90;;;;;;;26.64;37.59;99353.36;1753203;81;21977;-83
2023/10/20 10:27:50;;;;;;;12.85;4.97;;;;;;;26.81;37.33;99353.35;1729125;82;21283;-83
2023/10/20 10:30:58;;;;;;;12.68;5.75;;;;;;;26.97;37.19;99365.99;1734354;81;21999;-83
2023/10/20 10:34:10;;;;;;;14.55;4.60;;;;;;;27.07;37.04;99357.39;1728351;82;21315;-81
2023/10/20 10:37:16;;;;;;;9.35;4.12;;;;;;;27.21;36.89;99358.27;1718670;82;21304;-83
2023/10/20 10:40:26;;;;;;;10.13;3.62;;;;;;;27.55;36.40;99359.86;1762028;81;21299;-82
2023/10/20 10:43:33;;;;;;;12.05;2.95;;;;;;;27.34;36.92;99365.64;1758693;81;21274;-82
2023/10/20 10:46:42;;;;;;;17.98;3.22;;;;;;;27.05;37.33;99366.66;1753559;81;21614;-82
2023/10/20 10:49:54;;;;;;;15.03;2.95;;;;;;;27.21;37.28;99363.89;1727320;82;21929;-82
2023/10/20 10:53:00;;;;;;;7.50;2.72;;;;;;;26.84;38.06;99344.34;1729321;82;21292;-82
2023/10/20 10:56:06;;;;;;;10.03;3.02;;;;;;;27.24;37.35;99348.39;1725692;82;21308;-82
2023/10/20 10:59:12;;;;;;;11.65;2.75;;;;;;;27.18;37.22;99351.86;1762783;81;21345;-82
2023/10/20 11:02:19;;;;;;;7.03;2.58;;;;;;;27.04;37.17;99350.98;1728214;81;21339;-82
2023/10/20 11:05:26;;;;;;;13.35;2.77;;;;;;;26.61;37.85;99348.92;1757896;81;21289;-81
2023/10/20 11:08:35;;;;;;;10.95;2.40;;;;;;;26.88;37.55;99334.17;1755790;81;21288;-82
2023/10/20 11:11:51;;;;;;;7.92;2.30;;;;;;;26.91;37.28;99332.13;1785316;79;21604;-83
2023/10/20 11:14:57;;;;;;;7.30;2.52;;;;;;;26.92;37.53;99320.63;1783312;79;21809;-82
2023/10/20 11:18:13;;;;;;;11.08;2.37;;;;;;;26.72;37.95;99314.81;1788720;79;21877;-83
2023/10/20 11:21:20;;;;;;;6.12;2.50;;;;;;;27.00;37.81;99312.88;1781494;79;21295;-83
2023/10/20 11:24:34;;;;;;;8.88;2.80;;;;;;;27.07;37.94;99301.83;1778828;79;21340;-83
2023/10/20 11:27:56;;;;;;;8.53;2.40;;;;;;;27.28;37.80;99292.47;1778816;79;21630;-83
2023/10/20 11:30:56;;;;;;;11.20;2.40;;;;;;;27.16;37.87;99298.61;1786495;79;21951;-82
2023/10/20 11:34:02;;;;;;;9.30;2.52;;;;;;;27.42;37.47;99298.91;1745067;81;21291;-83
2023/10/20 11:37:12;;;;;;;18.05;2.67;;;;;;;27.47;37.32;99295.99;1728582;81;21921;-83
2023/10/20 11:40:17;;;;;;;7.12;2.47;;;;;;;27.58;37.02;99290.44;1777999;79;21276;-83
2023/10/20 11:43:23;;;;;;;8.55;2.37;;;;;;;27.56;37.10;99293.29;1790355;79;21289;-83
2023/10/20 11:46:30;;;;;;;11.48;2.77;;;;;;;26.99;37.98;99282.33;1790947;79;21260;-83
2023/10/20 11:49:36;;;;;;;8.25;2.80;;;;;;;26.47;38.83;99282.41;1728947;82;21308;-82
2023/10/20 11:52:42;;;;;;;8.98;2.72;;;;;;;26.59;38.92;99284.75;1783675;79;21629;-82
2023/10/20 11:55:49;;;;;;;8.65;2.37;;;;;;;26.50;38.85;99283.20;1780872;79;21784;-82
2023/10/20 11:58:55;;;;;;;18.27;3.77;;;;;;;26.10;39.73;99274.84;1795396;79;21300;-81
2023/10/20 12:02:03;;;;;;;8.35;2.50;;;;;;;26.29;39.57;99263.61;1785946;79;21842;-82
2023/10/20 12:05:09;;;;;;;19.65;3.27;;;;;;;26.38;39.46;99262.36;1783931;79;22209;-81
2023/10/20 12:08:16;;;;;;;10.70;2.87;;;;;;;26.36;39.52;99257.64;1783522;79;21346;-82
2023/10/20 12:11:22;;;;;;;22.07;4.00;;;;;;;26.46;39.43;99248.51;1784994;79;21276;-82
2023/10/20 12:14:28;;;;;;;28.23;3.83;;;;;;;26.22;39.68;99237.39;1786498;79;21248;-82
2023/10/20 12:17:34;;;;;;;11.65;2.65;;;;;;;26.47;39.24;99240.92;1788994;79;21540;-82
2023/10/20 12:20:41;;;;;;;12.80;2.85;;;;;;;26.44;39.49;99237.33;1779895;79;21900;-81
2023/10/20 12:23:46;;;;;;;9.88;2.65;;;;;;;26.46;39.58;99240.67;1787616;79;21275;-81
2023/10/20 12:26:52;;;;;;;15.50;5.30;;;;;;;26.36;39.98;99239.42;1785620;79;21872;-82
2023/10/20 12:29:58;;;;;;;13.45;3.67;;;;;;;26.35;39.82;99239.98;1790030;79;21346;-82
2023/10/20 12:33:05;;;;;;;14.23;2.87;;;;;;;25.96;40.39;99242.56;1782490;79;21284;-82
2023/10/20 12:36:13;;;;;;;11.88;3.10;;;;;;;25.71;41.07;99248.52;1790615;79;21272;-82
2023/10/20 12:39:20;;;;;;;16.77;3.58;;;;;;;25.85;40.97;99251.44;1790167;79;21284;-82
2023/10/20 12:42:27;;;;;;;12.93;3.33;;;;;;;25.71;41.00;99239.55;1788942;79;21355;-82
2023/10/20 12:45:32;;;;;;;18.42;3.37;;;;;;;26.06;40.29;99255.57;1785765;79;21311;-82
2023/10/20 12:48:38;;;;;;;7.83;2.52;;;;;;;26.22;40.11;99240.77;1781794;79;21827;-83
2023/10/20 12:51:44;;;;;;;14.60;3.15;;;;;;;26.33;39.87;99237.22;1777021;78;21913;-82
2023/10/20 12:54:51;;;;;;;11.20;3.05;;;;;;;25.83;40.80;99246.69;1775425;78;21280;-82
2023/10/20 12:57:58;;;;;;;8.35;2.80;;;;;;;25.73;40.96;99247.06;1725408;82;21311;-82
2023/10/20 13:01:03;;;;;;;10.95;3.55;;;;;;;26.15;40.22;99245.34;1779803;79;21319;-82
2023/10/20 13:04:11;;;;;;;6.40;2.77;;;;;;;26.42;39.54;99249.39;1719968;83;22139;-82
2023/10/20 13:07:16;;;;;;;7.60;2.45;;;;;;;26.27;39.64;99246.86;1777432;80;21288;-82
2023/10/20 13:10:23;;;;;;;10.10;2.65;;;;;;;26.03;39.87;99235.19;1775540;79;21284;-82
2023/10/20 13:13:31;;;;;;;14.15;3.22;;;;;;;25.71;39.99;99223.31;1731390;81;21264;-82
2023/10/20 13:16:34;;;;;;;7.60;3.22;;;;;;;25.74;39.82;99224.13;1776160;79;21347;-82
2023/10/20 13:19:41;;;;;;;8.88;3.12;;;;;;;26.17;38.81;99223.47;1762600;81;21308;-82
2023/10/20 13:22:46;;;;;;;9.90;3.60;;;;;;;26.14;38.96;99224.64;1800609;79;21862;-82
2023/10/20 13:25:51;;;;;;;11.57;2.77;;;;;;;26.13;38.77;99221.58;1797744;79;21343;-82
2023/10/20 13:28:59;;;;;;;10.43;3.20;;;;;;;26.06;38.97;99222.52;1720512;83;21285;-82
2023/10/20 13:32:05;;;;;;;11.97;2.80;;;;;;;25.95;39.24;99214.28;1781653;80;21300;-82
2023/10/20 13:35:11;;;;;;;6.47;2.90;;;;;;;25.93;39.23;99222.17;1763701;81;21288;-82
2023/10/20 13:38:18;;;;;;;7.15;2.85;;;;;;;25.85;39.30;99217.25;1697743;84;21346;-83
2023/10/20 13:41:25;;;;;;;9.43;2.70;;;;;;;25.77;39.46;99229.70;1775696;80;21338;-82
2023/10/20 13:44:32;;;;;;;10.55;3.10;;;;;;;25.77;39.53;99229.13;1720391;83;21924;-81
2023/10/20 13:47:39;;;;;;;6.15;2.83;;;;;;;25.90;39.31;99209.34;1777592;80;21296;-82
2023/10/20 13:50:49;;;;;;;13.85;3.33;;;;;;;26.02;39.10;99215.86;1698038;84;21839;-82
2023/10/20 13:53:55;;;;;;;6.78;2.90;;;;;;;26.05;39.12;99209.66;1763421;81;21331;-81
2023/10/20 13:57:00;;;;;;;14.55;2.70;;;;;;;25.99;39.22;99208.91;1727124;81;21312;-81
2023/10/20 14:00:07;;;;;;;9.45;3.25;;;;;;;25.86;39.50;99218.08;1734353;81;21856;-82
2023/10/20 14:03:13;;;;;;;9.90;3.40;;;;;;;25.72;39.79;99222.17;1776456;79;21830;-82
2023/10/20 14:06:19;;;;;;;7.58;3.30;;;;;;;25.77;39.75;99229.70;1698062;84;21334;-82
2023/10/20 14:09:25;;;;;;;7.03;3.95;;;;;;;25.63;39.93;99233.22;1763148;81;21343;-82
2023/10/20 14:12:31;;;;;;;8.63;3.42;;;;;;;25.64;39.97;99225.64;1699433;84;21306;-81
2023/10/20 14:15:37;;;;;;;9.43;3.65;;;;;;;25.81;39.64;99227.96;1740771;81;21275;-82
2023/10/20 14:18:42;;;;;;;7.60;2.98;;;;;;;25.57;40.09;99229.41;1740934;82;22238;-82
2023/10/20 14:21:47;;;;;;;7.33;3.58;;;;;;;25.74;39.79;99235.33;1742726;82;21332;-82
2023/10/20 14:24:53;;;;;;;11.63;4.53;;;;;;;25.51;40.28;99234.24;1741015;82;21930;-82
2023/10/20 14:27:58;;;;;;;10.98;3.98;;;;;;;25.52;40.42;99240.67;1743129;82;21308;-82
2023/10/20 14:31:05;;;;;;;10.75;4.35;;;;;;;25.56;40.28;99248.17;1739572;82;21356;-82
2023/10/20 14:34:12;;;;;;;13.13;4.12;;;;;;;25.59;40.36;99247.55;1767873;81;21303;-81
2023/10/20 14:37:17;;;;;;;18.15;5.40;;;;;;;25.24;41.02;99254.45;1740593;82;21787;-82
2023/10/20 14:40:26;;;;;;;13.32;5.03;;;;;;;25.44;40.78;99251.95;1736931;82;21865;-82
2023/10/20 14:43:35;;;;;;;13.88;4.58;;;;;;;24.48;42.56;99257.48;1767245;81;21287;-82
2023/10/20 14:46:43;;;;;;;9.33;5.35;;;;;;;24.41;42.74;99261.16;1715532;82;21912;-81
2023/10/20 14:49:50;;;;;;;15.60;4.90;;;;;;;24.23;43.04;99259.34;1691162;85;21310;-81
2023/10/20 14:52:57;;;;;;;11.78;4.08;;;;;;;24.31;43.00;99258.42;1690193;85;21290;-82
2023/10/20 14:56:03;;;;;;;10.85;3.90;;;;;;;24.50;42.66;99252.41;1690481;85;21298;-82
2023/10/20 14:59:09;;;;;;;12.55;5.45;;;;;;;24.69;42.39;99250.55;1690196;85;21263;-82
2023/10/20 15:02:15;;;;;;;10.15;4.28;;;;;;;24.65;42.50;99244.44;1739139;82;21340;-82